Time;durP1;ratioP1;P1;durP2;ratioP2;P2;SDS_P1;SDS_P2;PMS_P1;PMS_P2;Temp;Humidity;BMP_temperature;BMP_pressure;BME280_temperature;BME280_humidity;BME280_pressure;Samples;Min_cycle;Max_cycle;Signal;HPM_P1;HPM_P2
2023/01/18 00:00:49;;;;;;;7.07;4.22;;;;;;;5.32;100.00;95800.87;4501129;31;20143;-72
2023/01/18 00:03:17;;;;;;;7.30;4.60;;;;;;;5.39;100.00;95795.81;4501309;31;20092;-71
2023/01/18 00:05:45;;;;;;;9.52;4.60;;;;;;;5.35;100.00;95778.97;4500955;31;20091;-71
2023/01/18 00:08:17;;;;;;;9.65;5.50;;;;;;;5.33;100.00;95765.38;4501136;31;20475;-71
2023/01/18 00:10:45;;;;;;;7.55;4.65;;;;;;;5.24;100.00;95769.00;4488837;31;20159;-71
2023/01/18 00:13:12;;;;;;;9.50;5.65;;;;;;;5.23;100.00;95764.81;4485212;32;20141;-71
2023/01/18 00:15:39;;;;;;;10.80;5.37;;;;;;;5.25;100.00;95748.06;4485420;31;20149;-71
2023/01/18 00:18:06;;;;;;;11.00;6.18;;;;;;;5.26;100.00;95743.69;4485461;31;20478;-71
2023/01/18 00:20:33;;;;;;;9.00;5.22;;;;;;;5.25;100.00;95740.28;4485599;31;20512;-72
2023/01/18 00:23:01;;;;;;;10.18;5.65;;;;;;;5.28;100.00;95745.16;4498798;31;20122;-71
2023/01/18 00:25:29;;;;;;;11.02;5.93;;;;;;;5.35;100.00;95753.00;4500842;31;20080;-72
2023/01/18 00:27:56;;;;;;;10.80;5.97;;;;;;;5.37;100.00;95781.38;4500986;31;20151;-72
2023/01/18 00:30:26;;;;;;;13.05;6.68;;;;;;;5.40;100.00;95801.78;4500919;31;20122;-71
2023/01/18 00:32:57;;;;;;;14.30;6.90;;;;;;;5.34;100.00;95813.69;4500891;31;20092;-72
2023/01/18 00:35:25;;;;;;;13.10;7.40;;;;;;;5.31;100.00;95850.38;4500971;31;20133;-72
2023/01/18 00:37:53;;;;;;;9.82;6.30;;;;;;;5.35;100.00;95871.63;4500648;31;20167;-72
2023/01/18 00:40:22;;;;;;;11.38;6.00;;;;;;;5.36;100.00;95896.56;4500830;31;20115;-71
2023/01/18 00:45:35;;;;;;;9.98;5.75;;;;;;;5.58;100.00;95907.91;4500961;31;20110;-72
2023/01/18 00:48:02;;;;;;;10.13;5.75;;;;;;;5.57;100.00;95912.31;4500723;31;20096;-72
2023/01/18 00:50:29;;;;;;;13.35;5.82;;;;;;;5.44;100.00;95922.47;4500539;31;20123;-72
2023/01/18 00:52:58;;;;;;;10.27;6.05;;;;;;;5.42;100.00;95912.28;4501132;31;20147;-72
2023/01/18 00:55:26;;;;;;;9.95;5.82;;;;;;;5.37;100.00;95899.00;4500765;31;20152;-71
2023/01/18 00:57:53;;;;;;;15.40;7.50;;;;;;;5.34;100.00;95904.53;4500998;31;20096;-72
2023/01/18 01:00:22;;;;;;;17.17;7.68;;;;;;;5.37;100.00;95901.59;4500646;31;20172;-72
2023/01/18 01:02:50;;;;;;;21.85;8.65;;;;;;;5.36;100.00;95892.22;4500757;31;20100;-72
2023/01/18 01:08:15;;;;;;;17.37;7.50;;;;;;;5.49;100.00;95884.59;4500624;31;20098;-72
2023/01/18 01:10:48;;;;;;;16.80;8.70;;;;;;;5.57;100.00;95882.91;4488476;31;20172;-72
2023/01/18 01:27:13;;;;;;;13.25;7.68;;;;;;;5.42;100.00;95849.13;4500386;31;20095;-72
2023/01/18 01:29:40;;;;;;;15.57;7.82;;;;;;;5.45;100.00;95861.75;4500819;31;20533;-72
2023/01/18 01:32:07;;;;;;;12.37;7.18;;;;;;;5.47;100.00;95872.81;4500308;31;20556;-72
2023/01/18 01:34:35;;;;;;;13.60;8.40;;;;;;;5.48;100.00;95888.19;4500395;31;20088;-72
2023/01/18 01:37:03;;;;;;;20.60;8.52;;;;;;;5.48;100.00;95885.59;4500041;31;20412;-72
2023/01/18 01:39:30;;;;;;;24.00;8.63;;;;;;;5.53;100.00;95905.03;4500201;31;20535;-72
2023/01/18 01:41:57;;;;;;;85.38;10.27;;;;;;;5.46;100.00;95897.94;4500213;31;20440;-72
2023/01/18 01:44:27;;;;;;;83.70;10.45;;;;;;;5.37;100.00;95891.19;4500247;31;20099;-71
2023/01/18 01:47:17;;;;;;;240.00;16.85;;;;;;;5.43;100.00;95898.28;4500110;31;20480;-72
2023/01/18 01:49:47;;;;;;;105.10;11.27;;;;;;;5.38;100.00;95912.81;4498720;31;20118;-71
2023/01/18 01:52:35;;;;;;;260.58;17.75;;;;;;;5.41;100.00;95915.03;4500034;31;20123;-72
2023/01/18 01:55:30;;;;;;;229.85;15.93;;;;;;;5.43;100.00;95919.06;4498729;31;20100;-72
2023/01/18 01:58:10;;;;;;;208.27;14.63;;;;;;;5.26;100.00;95904.62;4499951;31;20110;-72
2023/01/18 02:00:37;;;;;;;311.62;18.60;;;;;;;5.28;100.00;95902.63;4498804;31;20084;-72
2023/01/18 02:03:07;;;;;;;327.52;20.55;;;;;;;5.39;100.00;95901.41;4498813;31;20159;-72
2023/01/18 02:05:38;;;;;;;243.27;16.52;;;;;;;5.39;100.00;95904.84;4500144;31;20083;-72
2023/01/18 02:08:10;;;;;;;26.40;8.10;;;;;;;5.35;100.00;95903.56;4501838;31;20634;-72
2023/01/18 02:10:37;;;;;;;82.53;11.27;;;;;;;5.36;100.00;95902.59;4477925;31;20102;-72
2023/01/18 02:13:06;;;;;;;34.28;8.63;;;;;;;5.34;100.00;95912.31;4470487;32;20100;-72
2023/01/18 02:15:46;;;;;;;17.10;7.37;;;;;;;5.32;100.00;95925.47;4468979;32;20169;-72
2023/01/18 02:18:31;;;;;;;40.78;7.85;;;;;;;5.24;100.00;95941.13;4469241;32;20092;-72
2023/01/18 02:21:15;;;;;;;90.85;8.75;;;;;;;5.34;100.00;95964.25;4469446;31;20080;-72
2023/01/18 02:24:00;;;;;;;56.58;9.68;;;;;;;5.18;100.00;95964.34;4500780;31;20214;-72
2023/01/18 02:26:46;;;;;;;22.27;7.10;;;;;;;5.13;100.00;95949.28;4502123;31;20585;-72
2023/01/18 02:29:19;;;;;;;72.30;8.77;;;;;;;5.19;100.00;95947.81;4502176;31;20144;-72
2023/01/18 02:32:22;;;;;;;28.20;6.87;;;;;;;5.14;100.00;95951.72;4500467;31;20104;-72
2023/01/18 02:34:57;;;;;;;12.23;6.68;;;;;;;5.08;100.00;95959.41;4452182;32;20130;-72
2023/01/18 02:37:28;;;;;;;48.83;7.93;;;;;;;4.88;100.00;95954.66;4439606;32;20215;-72
2023/01/18 02:40:16;;;;;;;9.27;6.03;;;;;;;4.80;100.00;95939.94;4439554;32;20088;-71
2023/01/18 02:48:36;;;;;;;14.15;6.20;;;;;;;4.95;100.00;95940.03;4452215;32;20109;-71
2023/01/18 02:51:04;;;;;;;30.20;6.80;;;;;;;4.90;100.00;95946.69;4452210;32;20117;-71
2023/01/18 02:53:36;;;;;;;34.17;6.37;;;;;;;4.89;100.00;95960.63;4452338;32;20097;-72
2023/01/18 02:56:15;;;;;;;26.48;5.75;;;;;;;4.92;100.00;95955.09;4452394;32;20137;-71
2023/01/18 02:58:50;;;;;;;14.60;5.53;;;;;;;4.96;100.00;95940.81;4452414;32;20136;-72
2023/01/18 03:01:25;;;;;;;21.40;6.45;;;;;;;4.92;100.00;95929.16;4452310;32;20586;-71
2023/01/18 03:03:58;;;;;;;50.20;7.37;;;;;;;4.82;100.00;95934.59;4439914;32;20127;-72
2023/01/18 03:06:28;;;;;;;32.75;6.18;;;;;;;4.82;100.00;95933.78;4438948;32;20185;-72
2023/01/18 03:08:56;;;;;;;46.47;6.45;;;;;;;4.82;100.00;95944.97;4451850;32;20168;-72
2023/01/18 03:11:29;;;;;;;28.20;6.68;;;;;;;4.88;100.00;95943.47;4434774;32;20222;-72
2023/01/18 03:14:20;;;;;;;43.03;7.43;;;;;;;4.90;100.00;95931.13;4470479;32;20077;-71
2023/01/18 03:16:57;;;;;;;18.58;6.25;;;;;;;4.88;100.00;95922.72;4421082;32;20161;-72
2023/01/18 03:20:02;;;;;;;90.53;8.68;;;;;;;4.93;100.00;95925.59;4421183;32;20127;-71
2023/01/18 03:25:33;;;;;;;29.40;6.15;;;;;;;4.79;100.00;95912.38;4436407;32;20610;-71
2023/01/18 03:33:45;;;;;;;62.62;7.35;;;;;;;4.75;100.00;95890.38;4436224;32;20093;-72
2023/01/18 03:36:16;;;;;;;74.62;7.85;;;;;;;4.74;100.00;95904.31;4436615;32;20553;-72
2023/01/18 03:38:46;;;;;;;49.40;6.80;;;;;;;4.82;100.00;95900.06;4436286;32;20132;-72
2023/01/18 03:41:15;;;;;;;75.78;7.60;;;;;;;4.90;100.00;95903.41;4423674;32;20451;-71
2023/01/18 03:43:43;;;;;;;76.93;7.65;;;;;;;4.90;100.00;95892.22;4423663;32;20155;-72
2023/01/18 03:46:12;;;;;;;117.82;9.18;;;;;;;4.90;100.00;95900.00;4423693;32;20572;-72
2023/01/18 03:48:39;;;;;;;64.68;7.28;;;;;;;4.90;100.00;95905.19;4423871;32;20609;-72
2023/01/18 03:51:20;;;;;;;127.12;9.57;;;;;;;4.90;100.00;95900.00;4436335;32;20089;-72
2023/01/18 03:54:03;;;;;;;154.32;10.02;;;;;;;4.87;100.00;95903.75;4441888;32;20472;-72
2023/01/18 03:56:37;;;;;;;173.77;10.75;;;;;;;4.86;100.00;95903.91;4468578;32;20093;-72
2023/01/18 03:59:06;;;;;;;42.05;6.90;;;;;;;4.91;100.00;95912.81;4468699;32;20104;-72
2023/01/18 04:01:33;;;;;;;40.60;8.00;;;;;;;5.00;100.00;95936.09;4468316;32;20127;-72
2023/01/18 04:04:01;;;;;;;124.07;9.02;;;;;;;4.94;100.00;95940.19;4469700;32;20435;-72
2023/01/18 04:06:30;;;;;;;58.38;7.72;;;;;;;4.92;100.00;95944.72;4469870;32;20474;-72
2023/01/18 04:08:57;;;;;;;140.65;10.18;;;;;;;5.02;100.00;95944.53;4470163;32;20154;-72
2023/01/18 04:11:24;;;;;;;28.60;5.65;;;;;;;4.98;100.00;95934.50;4485130;31;20122;-72
2023/01/18 04:13:51;;;;;;;29.17;5.75;;;;;;;5.05;100.00;95929.41;4485187;31;20158;-72
2023/01/18 04:16:20;;;;;;;41.33;6.25;;;;;;;5.02;100.00;95928.94;4485459;32;20135;-72
2023/01/18 04:18:48;;;;;;;103.10;6.93;;;;;;;4.98;100.00;95915.50;4485351;31;20160;-72
2023/01/18 04:21:15;;;;;;;32.63;5.05;;;;;;;4.94;100.00;95904.66;4487168;31;20129;-72
2023/01/18 04:23:42;;;;;;;37.95;5.18;;;;;;;4.88;100.00;95910.56;4500992;31;20118;-72
2023/01/18 04:26:10;;;;;;;10.18;4.80;;;;;;;4.95;100.00;95919.28;4501041;31;20119;-72
2023/01/18 04:28:37;;;;;;;7.50;4.37;;;;;;;4.92;100.00;95913.59;4500378;31;20088;-72
2023/01/18 04:31:04;;;;;;;8.20;4.07;;;;;;;4.90;100.00;95921.56;4501111;31;20159;-72
2023/01/18 04:33:32;;;;;;;9.25;4.12;;;;;;;4.98;100.00;95949.22;4500744;31;20560;-72
2023/01/18 04:35:59;;;;;;;9.02;4.03;;;;;;;4.96;100.00;95948.59;4501074;31;20544;-72
2023/01/18 04:38:27;;;;;;;12.50;4.45;;;;;;;4.92;100.00;95957.69;4500825;31;20104;-72
2023/01/18 04:40:54;;;;;;;11.38;3.85;;;;;;;4.89;100.00;95971.00;4500939;31;20167;-72
2023/01/18 04:43:21;;;;;;;28.08;4.22;;;;;;;4.90;100.00;95972.62;4500920;31;20103;-72
2023/01/18 04:45:54;;;;;;;54.47;4.80;;;;;;;4.83;100.00;95953.53;4500928;31;20147;-72
2023/01/18 04:48:23;;;;;;;32.42;4.90;;;;;;;4.86;100.00;95945.41;4500743;31;20088;-72
2023/01/18 04:50:50;;;;;;;44.13;4.28;;;;;;;4.82;100.00;95977.88;4500825;31;20115;-72
2023/01/18 04:53:18;;;;;;;12.77;4.18;;;;;;;4.85;100.00;95974.94;4500810;31;20083;-72
2023/01/18 04:55:45;;;;;;;19.35;3.90;;;;;;;4.91;100.00;95979.44;4501093;31;20075;-72
2023/01/18 04:58:13;;;;;;;30.48;3.42;;;;;;;4.92;100.00;95986.22;4500632;31;20137;-72
2023/01/18 05:00:41;;;;;;;32.85;4.40;;;;;;;4.79;100.00;95995.38;4500899;31;20173;-72
2023/01/18 05:03:10;;;;;;;34.97;3.90;;;;;;;4.84;100.00;96004.44;4500597;31;20092;-72
2023/01/18 05:05:37;;;;;;;54.78;5.20;;;;;;;4.71;100.00;96012.75;4501205;31;20080;-72
2023/01/18 05:08:04;;;;;;;81.85;6.53;;;;;;;4.66;100.00;96025.41;4500611;31;20501;-72
2023/01/18 05:10:32;;;;;;;164.02;9.50;;;;;;;4.72;100.00;96040.31;4489604;31;20172;-72
2023/01/18 05:12:59;;;;;;;140.35;8.13;;;;;;;4.57;100.00;96040.19;4484807;32;20115;-72
2023/01/18 05:15:27;;;;;;;200.85;10.43;;;;;;;4.65;100.00;96034.16;4484548;32;20084;-72
2023/01/18 05:17:54;;;;;;;182.37;9.02;;;;;;;4.65;100.00;96036.75;4472509;32;20096;-72
2023/01/18 05:20:21;;;;;;;120.30;7.87;;;;;;;4.60;100.00;96040.69;4480465;32;20109;-72
2023/01/18 05:22:48;;;;;;;136.55;8.65;;;;;;;4.59;100.00;96049.44;4493266;31;20115;-72
2023/01/18 05:25:16;;;;;;;234.77;9.95;;;;;;;4.54;100.00;96056.09;4490841;31;20176;-72
2023/01/18 05:27:43;;;;;;;4.37;2.40;;;;;;;4.47;100.00;96060.31;4484562;31;20084;-72
2023/01/18 05:30:10;;;;;;;85.50;6.47;;;;;;;4.24;100.00;96055.84;4481908;32;20109;-72
2023/01/18 05:32:38;;;;;;;7.30;3.08;;;;;;;4.19;100.00;96052.91;4484631;31;20469;-72
2023/01/18 05:35:06;;;;;;;6.78;3.22;;;;;;;4.02;100.00;96052.13;4484370;31;20179;-72
2023/01/18 05:37:33;;;;;;;4.85;2.47;;;;;;;3.93;100.00;96048.72;4484345;31;20494;-73
2023/01/18 05:40:00;;;;;;;8.32;3.58;;;;;;;3.89;100.00;96047.44;4480473;32;20143;-73
2023/01/18 05:42:27;;;;;;;4.57;2.37;;;;;;;3.75;100.00;96048.09;4470508;32;20119;-73
2023/01/18 05:44:54;;;;;;;4.47;1.87;;;;;;;3.61;100.00;96029.63;4470716;32;20093;-73
2023/01/18 05:47:22;;;;;;;3.28;2.08;;;;;;;3.45;100.00;96016.69;4470721;32;20100;-74
2023/01/18 05:49:48;;;;;;;3.95;1.70;;;;;;;3.38;100.00;95994.03;4471858;32;20134;-74
2023/01/18 05:52:16;;;;;;;4.22;1.73;;;;;;;3.22;100.00;95988.03;4485727;32;20100;-75
2023/01/18 05:54:43;;;;;;;3.45;1.52;;;;;;;3.22;100.00;95999.19;4486086;31;20088;-75
2023/01/18 05:57:10;;;;;;;2.60;1.60;;;;;;;3.17;100.00;95991.09;4486368;31;20108;-75
2023/01/18 05:59:37;;;;;;;3.08;1.67;;;;;;;3.14;100.00;95981.88;4486203;31;20115;-75
2023/01/18 06:02:05;;;;;;;7.85;1.35;;;;;;;3.15;100.00;95977.50;4479038;31;20131;-75
2023/01/18 06:04:32;;;;;;;4.53;1.50;;;;;;;3.09;100.00;95981.56;4473666;32;20092;-75
2023/01/18 06:07:00;;;;;;;3.92;2.00;;;;;;;3.18;100.00;95995.31;4478067;32;20085;-74
2023/01/18 06:09:28;;;;;;;3.65;2.00;;;;;;;3.29;100.00;96014.91;4470208;32;20531;-74
2023/01/18 06:11:56;;;;;;;4.50;2.17;;;;;;;3.22;100.00;96032.81;4470325;32;20096;-74
2023/01/18 06:14:23;;;;;;;5.90;1.73;;;;;;;3.13;100.00;96029.41;4468417;32;20445;-74
2023/01/18 06:16:50;;;;;;;2.95;1.65;;;;;;;3.13;100.00;96026.00;4480172;32;20105;-74
2023/01/18 06:19:18;;;;;;;2.58;1.40;;;;;;;3.13;100.00;96031.97;4477522;31;20092;-73
2023/01/18 06:21:45;;;;;;;2.80;1.50;;;;;;;3.08;100.00;96028.28;4479728;31;20186;-73
2023/01/18 06:24:12;;;;;;;3.83;1.80;;;;;;;3.15;100.00;96021.47;4486730;31;20163;-73
2023/01/18 06:26:40;;;;;;;3.30;1.60;;;;;;;3.14;100.00;96014.72;4480297;31;20473;-74
2023/01/18 06:29:07;;;;;;;2.40;1.50;;;;;;;3.22;100.00;96014.72;4476897;31;20123;-74
2023/01/18 06:31:34;;;;;;;2.90;1.50;;;;;;;3.24;100.00;96002.44;4475288;32;20112;-74
2023/01/18 06:34:08;;;;;;;3.35;2.10;;;;;;;3.16;100.00;95967.03;4483537;31;20152;-75
2023/01/18 06:36:36;;;;;;;2.45;1.75;;;;;;;3.09;100.00;95967.78;4473497;31;20100;-74
2023/01/18 06:39:04;;;;;;;4.50;2.15;;;;;;;3.11;100.00;95999.50;4480949;31;20160;-75
2023/01/18 06:41:31;;;;;;;3.70;1.85;;;;;;;2.99;100.00;95994.63;4476322;31;20111;-75
2023/01/18 06:43:58;;;;;;;4.00;1.90;;;;;;;2.94;100.00;96025.31;4475969;31;20276;-76
2023/01/18 06:46:25;;;;;;;3.97;1.98;;;;;;;3.01;100.00;96046.19;4468659;32;20105;-76
2023/01/18 06:48:53;;;;;;;4.40;2.22;;;;;;;3.01;100.00;96059.09;4467021;32;20119;-75
2023/01/18 06:51:20;;;;;;;4.62;2.30;;;;;;;2.98;100.00;96075.78;4468074;32;20101;-75
2023/01/18 06:53:48;;;;;;;2.55;1.80;;;;;;;2.88;100.00;96075.09;4470411;32;20161;-75
2023/01/18 06:56:16;;;;;;;3.15;1.92;;;;;;;2.75;100.00;96072.12;4476673;32;20126;-73
2023/01/18 06:58:44;;;;;;;4.50;2.35;;;;;;;2.60;100.00;96093.34;4475734;32;20109;-74
2023/01/18 07:01:12;;;;;;;4.43;2.15;;;;;;;2.53;100.00;96117.38;4472204;31;20172;-75
2023/01/18 07:03:39;;;;;;;5.07;2.30;;;;;;;2.45;100.00;96125.88;4472239;32;20130;-75
2023/01/18 07:06:06;;;;;;;4.80;2.47;;;;;;;2.39;100.00;96116.16;4478025;32;20127;-75
2023/01/18 07:08:34;;;;;;;4.72;2.83;;;;;;;2.35;100.00;96101.91;4481787;32;20135;-74
2023/01/18 07:11:06;;;;;;;6.90;2.70;;;;;;;2.25;100.00;96105.41;4476272;31;20104;-75
2023/01/18 07:13:34;;;;;;;6.30;2.78;;;;;;;2.17;100.00;96102.78;4469322;32;20142;-74
2023/01/18 07:16:02;;;;;;;7.43;3.20;;;;;;;2.11;100.00;96116.31;4469626;32;20156;-78
2023/01/18 07:18:29;;;;;;;4.10;2.60;;;;;;;2.19;100.00;96136.22;4475932;32;20188;-76
2023/01/18 07:21:07;;;;;;;9.00;3.65;;;;;;;2.22;100.00;96146.25;4474306;32;20504;-77
2023/01/18 07:23:36;;;;;;;3.20;1.73;;;;;;;2.18;100.00;96158.66;4470162;32;20799;-77
2023/01/18 07:26:09;;;;;;;5.03;2.42;;;;;;;2.22;100.00;96159.16;4481057;31;20101;-76
2023/01/18 07:28:37;;;;;;;5.57;3.05;;;;;;;2.17;100.00;96161.38;4473906;32;20114;-77
2023/01/18 07:31:06;;;;;;;5.32;2.87;;;;;;;2.26;100.00;96169.03;4479178;31;20169;-77
2023/01/18 07:33:34;;;;;;;4.60;2.20;;;;;;;2.22;100.00;96169.50;4486287;31;20131;-77
2023/01/18 07:36:06;;;;;;;4.20;2.05;;;;;;;2.35;100.00;96156.16;4480803;31;20109;-76
2023/01/18 07:38:33;;;;;;;4.05;2.20;;;;;;;2.42;100.00;96170.13;4481375;31;20091;-75
2023/01/18 07:41:04;;;;;;;3.53;1.80;;;;;;;2.43;100.00;96175.13;4473223;32;20466;-79
2023/01/18 07:43:32;;;;;;;3.37;1.67;;;;;;;2.48;100.00;96167.75;4483172;32;20167;-77
2023/01/18 07:46:00;;;;;;;5.20;1.98;;;;;;;2.42;100.00;96177.88;4476680;31;20104;-76
2023/01/18 07:48:27;;;;;;;2.62;1.60;;;;;;;2.42;100.00;96183.03;4475262;32;20108;-74
2023/01/18 07:50:59;;;;;;;1.62;0.88;;;;;;;2.44;100.00;96196.63;4482969;31;20574;-76
2023/01/18 07:53:27;;;;;;;1.85;1.00;;;;;;;2.59;100.00;96208.06;4469582;32;20091;-75
2023/01/18 07:55:59;;;;;;;1.48;1.00;;;;;;;2.70;100.00;96217.34;4472671;32;20104;-75
2023/01/18 07:58:26;;;;;;;0.57;0.22;;;;;;;2.83;100.00;96216.91;4478043;31;20088;-75
2023/01/18 08:00:54;;;;;;;1.52;0.80;;;;;;;2.93;100.00;96233.16;4475124;31;20614;-77
2023/01/18 08:03:21;;;;;;;0.98;0.40;;;;;;;3.02;100.00;96255.50;4466655;32;21002;-77
2023/01/18 08:05:48;;;;;;;0.47;0.40;;;;;;;3.01;100.00;96260.84;4470993;31;20096;-78
2023/01/18 08:08:16;;;;;;;1.05;0.70;;;;;;;3.00;100.00;96267.78;4468906;32;20104;-77
2023/01/18 08:10:44;;;;;;;0.90;0.70;;;;;;;3.00;100.00;96270.38;4469282;31;20157;-75
2023/01/18 08:13:11;;;;;;;1.45;0.68;;;;;;;3.13;100.00;96269.16;4476934;31;20089;-73
2023/01/18 08:15:39;;;;;;;1.42;0.57;;;;;;;3.39;100.00;96263.97;4473122;31;20127;-77
2023/01/18 08:18:07;;;;;;;0.30;0.30;;;;;;;3.55;100.00;96274.41;4475303;31;20180;-75
2023/01/18 08:20:35;;;;;;;0.40;0.30;;;;;;;3.66;100.00;96286.25;4471740;32;20138;-75
2023/01/18 08:23:02;;;;;;;0.62;0.45;;;;;;;3.80;100.00;96308.19;4469009;31;20104;-75
2023/01/18 08:25:32;;;;;;;1.12;0.60;;;;;;;3.78;100.00;96309.31;4476253;32;20108;-76
2023/01/18 08:28:00;;;;;;;1.33;0.85;;;;;;;3.67;100.00;96306.00;4472981;31;20100;-76
2023/01/18 08:30:32;;;;;;;1.67;0.80;;;;;;;3.66;100.00;96301.00;4468712;32;20120;-73
2023/01/18 08:33:00;;;;;;;4.45;0.77;;;;;;;3.77;100.00;96295.56;4473091;32;20096;-74
2023/01/18 08:35:30;;;;;;;0.70;0.57;;;;;;;3.97;100.00;96293.50;4475060;31;20277;-73
2023/01/18 08:37:58;;;;;;;0.93;0.50;;;;;;;4.20;100.00;96298.91;4472368;32;20122;-74
2023/01/18 08:40:26;;;;;;;1.15;0.55;;;;;;;4.22;100.00;96296.16;4471971;32;20522;-73
2023/01/18 08:42:58;;;;;;;1.15;0.70;;;;;;;4.09;100.00;96299.22;4470525;32;20266;-73
2023/01/18 08:45:27;;;;;;;0.80;0.60;;;;;;;4.23;100.00;96300.38;4469207;32;85584;-74
2023/01/18 08:52:30;;;;;;;1.30;0.70;;;;;;;4.92;100.00;96323.47;4515300;31;33920;-72
2023/01/18 08:54:57;;;;;;;3.58;1.70;;;;;;;4.92;100.00;96323.47;4528430;31;20149;-73
2023/01/18 08:57:27;;;;;;;1.08;0.70;;;;;;;4.52;100.00;96343.22;4527086;31;20152;-73
2023/01/18 08:59:55;;;;;;;1.33;0.93;;;;;;;4.46;100.00;96346.44;4531650;31;20421;-72
2023/01/18 09:02:23;;;;;;;1.42;1.00;;;;;;;4.45;100.00;96343.03;4528101;31;20099;-72
2023/01/18 09:04:52;;;;;;;1.95;1.05;;;;;;;4.60;100.00;96359.63;4528447;31;20598;-74
2023/01/18 09:07:19;;;;;;;1.85;0.85;;;;;;;4.66;100.00;96372.91;4527886;31;20113;-73
2023/01/18 09:09:46;;;;;;;1.25;0.88;;;;;;;4.65;100.00;96379.87;4530835;31;20115;-73
2023/01/18 09:12:13;;;;;;;2.55;0.95;;;;;;;4.87;100.00;96403.59;4528452;31;20090;-73
2023/01/18 09:14:41;;;;;;;1.33;0.98;;;;;;;5.09;100.00;96428.09;4528667;31;20191;-75
2023/01/18 09:17:08;;;;;;;1.42;0.90;;;;;;;5.12;100.00;96438.97;4525958;31;21072;-74
2023/01/18 09:19:35;;;;;;;1.37;0.95;;;;;;;5.11;100.00;96447.72;4522404;31;20111;-73
2023/01/18 09:22:02;;;;;;;1.33;0.93;;;;;;;5.00;100.00;96455.81;4523587;31;20612;-73
2023/01/18 09:24:30;;;;;;;1.30;0.88;;;;;;;4.73;100.00;96465.47;4525613;31;20095;-74
2023/01/18 09:26:57;;;;;;;1.15;0.73;;;;;;;4.46;100.00;96473.47;4525408;31;20165;-73
2023/01/18 09:29:24;;;;;;;1.58;0.85;;;;;;;4.53;100.00;96480.47;4522577;31;20985;-72
2023/01/18 09:31:53;;;;;;;3.53;1.70;;;;;;;4.59;100.00;96489.41;4522160;31;20163;-72
2023/01/18 09:34:20;;;;;;;3.17;1.60;;;;;;;4.49;100.00;96494.72;4527195;31;20119;-76
2023/01/18 09:36:51;;;;;;;6.68;2.72;;;;;;;4.64;100.00;96496.72;4526008;31;20540;-74
2023/01/18 09:39:19;;;;;;;6.22;3.67;;;;;;;4.55;100.00;96493.28;4521854;31;20167;-74
2023/01/18 09:41:58;;;;;;;5.60;2.90;;;;;;;4.68;100.00;96501.44;4523459;31;20103;-74
2023/01/18 09:44:38;;;;;;;7.37;3.03;;;;;;;4.83;100.00;96512.06;4524791;31;20122;-73
2023/01/18 09:47:17;;;;;;;6.45;3.45;;;;;;;4.65;100.00;96527.69;4508261;31;20148;-74
2023/01/18 09:49:51;;;;;;;6.07;3.42;;;;;;;4.80;100.00;96523.53;4525872;31;20118;-73
2023/01/18 09:52:20;;;;;;;6.97;3.58;;;;;;;4.86;100.00;96522.12;4534790;31;20137;-74
2023/01/18 09:55:04;;;;;;;7.90;3.55;;;;;;;5.01;100.00;96516.31;4525898;31;20374;-75
2023/01/18 09:57:50;;;;;;;7.43;3.60;;;;;;;5.19;100.00;96518.78;4503619;31;20092;-77
2023/01/18 10:00:23;;;;;;;6.62;3.58;;;;;;;5.32;100.00;96519.94;4530592;31;20471;-77
2023/01/18 10:03:10;;;;;;;6.53;3.83;;;;;;;5.45;100.00;96516.91;4528359;31;20126;-76
2023/01/18 10:05:42;;;;;;;5.82;3.75;;;;;;;5.66;100.00;96524.22;4519692;31;20092;-75
2023/01/18 10:08:17;;;;;;;5.10;2.97;;;;;;;5.67;100.00;96531.03;4502481;31;20439;-73
2023/01/18 10:11:01;;;;;;;6.03;2.87;;;;;;;5.73;100.00;96541.75;4506057;31;20134;-73
2023/01/18 10:13:49;;;;;;;6.37;2.80;;;;;;;5.63;100.00;96540.13;4522833;31;20155;-73
2023/01/18 10:16:17;;;;;;;4.87;2.35;;;;;;;5.91;100.00;96552.00;4518538;31;20131;-76
2023/01/18 10:18:46;;;;;;;4.57;2.80;;;;;;;5.85;100.00;96563.84;4519273;31;20130;-75
2023/01/18 10:21:20;;;;;;;4.53;2.62;;;;;;;6.08;100.00;96571.81;4510313;31;20476;-74
2023/01/18 10:23:59;;;;;;;5.20;2.70;;;;;;;6.34;100.00;96563.03;4520846;31;20092;-73
2023/01/18 10:26:30;;;;;;;4.20;2.53;;;;;;;6.26;100.00;96565.66;4516494;31;20095;-74
2023/01/18 10:29:04;;;;;;;5.22;2.20;;;;;;;6.31;100.00;96571.16;4522400;31;20103;-73
2023/01/18 10:31:40;;;;;;;3.42;1.60;;;;;;;6.17;100.00;96573.44;4508759;31;20133;-73
2023/01/18 10:34:17;;;;;;;2.22;1.40;;;;;;;6.08;100.00;96565.81;4502600;31;20398;-75
2023/01/18 10:36:53;;;;;;;2.45;1.20;;;;;;;6.06;100.00;96581.59;4528622;31;20117;-73
2023/01/18 10:39:28;;;;;;;2.42;1.37;;;;;;;6.09;100.00;96590.84;4505517;31;20115;-75
2023/01/18 10:41:59;;;;;;;2.12;1.30;;;;;;;6.36;100.00;96600.09;4511106;31;20111;-72
2023/01/18 10:44:27;;;;;;;2.65;1.50;;;;;;;6.41;100.00;96603.00;4506179;31;20150;-72
2023/01/18 10:46:56;;;;;;;1.98;1.20;;;;;;;6.39;100.00;96617.97;4520469;31;20099;-73
2023/01/18 10:49:34;;;;;;;2.95;1.58;;;;;;;6.55;100.00;96627.53;4515877;31;20104;-74
2023/01/18 10:52:31;;;;;;;2.33;1.50;;;;;;;6.94;100.00;96645.03;4520952;31;20192;-73
2023/01/18 10:55:06;;;;;;;2.55;1.40;;;;;;;7.00;100.00;96652.16;4516918;31;20817;-75
2023/01/18 10:57:42;;;;;;;3.20;1.73;;;;;;;7.03;100.00;96659.66;4529095;31;20107;-73
2023/01/18 11:00:33;;;;;;;2.22;1.55;;;;;;;6.92;100.00;96660.00;4502326;31;20099;-73
2023/01/18 11:03:04;;;;;;;3.28;1.62;;;;;;;6.94;100.00;96668.47;4509111;31;20147;-73
2023/01/18 11:05:39;;;;;;;3.45;1.40;;;;;;;7.24;100.00;96663.50;4514275;31;20129;-71
2023/01/18 11:08:09;;;;;;;2.42;1.67;;;;;;;7.63;100.00;96667.88;4516917;31;20478;-72
2023/01/18 11:10:42;;;;;;;2.80;1.42;;;;;;;7.50;100.00;96660.63;4522612;31;20139;-73
2023/01/18 11:13:24;;;;;;;2.60;1.30;;;;;;;7.41;100.00;96669.47;4512713;31;20526;-72
2023/01/18 11:16:07;;;;;;;2.30;1.50;;;;;;;7.44;100.00;96684.75;4517846;31;20091;-72
2023/01/18 11:18:34;;;;;;;2.87;1.67;;;;;;;7.34;100.00;96697.16;4523535;31;20083;-72
2023/01/18 11:21:03;;;;;;;2.50;1.52;;;;;;;7.36;100.00;96701.22;4522704;31;20432;-72
2023/01/18 11:23:34;;;;;;;2.33;1.52;;;;;;;7.16;100.00;96693.00;4504713;31;20110;-73
2023/01/18 11:26:06;;;;;;;4.12;1.98;;;;;;;7.09;100.00;96698.03;4506612;31;20125;-73
2023/01/18 11:28:50;;;;;;;2.55;1.60;;;;;;;7.03;100.00;96695.28;4512855;31;20163;-73
2023/01/18 11:31:21;;;;;;;2.95;1.75;;;;;;;7.31;100.00;96706.09;4519558;31;20079;-73
2023/01/18 11:33:50;;;;;;;3.03;1.67;;;;;;;7.52;100.00;96710.75;4518133;31;20113;-72
2023/01/18 11:36:19;;;;;;;4.90;1.83;;;;;;;7.63;100.00;96715.63;4519785;31;20095;-73
2023/01/18 11:38:47;;;;;;;2.50;1.75;;;;;;;7.51;100.00;96716.97;4521107;31;20096;-73
2023/01/18 11:41:19;;;;;;;2.33;1.55;;;;;;;7.61;100.00;96724.56;4516009;31;20581;-74
2023/01/18 11:44:05;;;;;;;2.50;1.40;;;;;;;7.91;100.00;96727.38;4521685;31;20121;-73
2023/01/18 11:46:44;;;;;;;2.20;1.40;;;;;;;7.88;100.00;96738.16;4517932;31;20166;-73
2023/01/18 11:49:26;;;;;;;1.90;1.25;;;;;;;8.04;100.00;96742.47;4518957;31;20154;-73
2023/01/18 11:52:00;;;;;;;2.37;1.27;;;;;;;7.91;100.00;96749.03;4526958;31;20121;-74
2023/01/18 11:54:30;;;;;;;2.60;1.50;;;;;;;7.80;100.00;96746.81;4515564;31;20080;-74
2023/01/18 11:57:05;;;;;;;3.25;1.35;;;;;;;7.73;100.00;96751.88;4508827;31;20116;-73
2023/01/18 11:59:35;;;;;;;4.03;1.60;;;;;;;7.93;100.00;96757.53;4513717;31;20110;-72
2023/01/18 12:02:11;;;;;;;3.37;2.10;;;;;;;7.88;100.00;96753.81;4518239;31;20110;-73
2023/01/18 12:05:04;;;;;;;4.97;2.20;;;;;;;7.99;100.00;96761.22;4516687;31;20492;-73
2023/01/18 12:07:56;;;;;;;3.35;2.10;;;;;;;8.09;100.00;96771.47;4438988;32;20140;-73
2023/01/18 12:10:26;;;;;;;2.70;1.75;;;;;;;8.09;100.00;96767.06;4427485;32;20112;-73
2023/01/18 12:13:30;;;;;;;3.42;1.90;;;;;;;8.07;100.00;96766.41;4437886;32;20101;-74
2023/01/18 12:16:16;;;;;;;4.53;2.10;;;;;;;8.22;100.00;96784.78;4384455;32;20192;-73
2023/01/18 12:19:14;;;;;;;3.55;1.87;;;;;;;8.39;100.00;96782.88;4385451;32;20523;-74
2023/01/18 12:21:50;;;;;;;3.83;2.08;;;;;;;8.72;100.00;96794.91;4384343;32;20114;-73
2023/01/18 12:24:23;;;;;;;2.12;1.77;;;;;;;8.79;100.00;96799.25;4384897;32;20200;-73
2023/01/18 12:27:00;;;;;;;3.22;1.80;;;;;;;8.75;100.00;96807.63;4382815;32;20674;-72